Time;durP1;ratioP1;P1;durP2;ratioP2;P2;SDS_P1;SDS_P2;PMS_P1;PMS_P2;Temp;Humidity;BMP_temperature;BMP_pressure;BME280_temperature;BME280_humidity;BME280_pressure;Samples;Min_cycle;Max_cycle;Signal;HPM_P1;HPM_P2
2023/06/26 00:02:00;;;;;;;0.10;0.10;;;22.30;99.90;;;;;;5040738;28;20618;-82
2023/06/26 00:04:26;;;;;;;0.10;0.10;;;22.30;99.90;;;;;;5040174;28;20218;-82
2023/06/26 00:06:58;;;;;;;0.10;0.10;;;22.30;99.90;;;;;;5048758;28;20653;-81
2023/06/26 00:09:23;;;;;;;0.10;0.10;;;22.10;99.90;;;;;;5051294;28;20655;-81
2023/06/26 00:11:49;;;;;;;0.10;0.10;;;21.80;99.90;;;;;;5037321;28;20194;-81
2023/06/26 00:14:14;;;;;;;0.10;0.10;;;21.70;99.90;;;;;;5036881;28;20182;-81
2023/06/26 00:16:42;;;;;;;0.10;0.10;;;21.70;99.90;;;;;;5037262;28;20590;-81
2023/06/26 00:19:08;;;;;;;0.10;0.10;;;21.60;99.90;;;;;;5039684;28;20173;-81
2023/06/26 00:21:33;;;;;;;0.10;0.10;;;21.50;99.90;;;;;;5036248;28;20275;-83
2023/06/26 00:23:59;;;;;;;0.10;0.10;;;21.30;99.90;;;;;;5036744;28;20231;-81
2023/06/26 00:26:24;;;;;;;0.10;0.10;;;21.20;99.90;;;;;;5037235;28;20205;-82
2023/06/26 00:28:50;;;;;;;0.10;0.10;;;21.10;99.90;;;;;;5036437;28;20584;-81
2023/06/26 00:31:15;;;;;;;0.10;0.10;;;21.00;99.90;;;;;;5036213;28;20670;-81
2023/06/26 00:33:41;;;;;;;0.10;0.10;;;21.00;99.90;;;;;;5038502;28;20223;-81
2023/06/26 00:36:06;;;;;;;0.10;0.10;;;20.80;99.90;;;;;;5038679;28;20611;-82
2023/06/26 00:38:32;;;;;;;0.10;0.10;;;20.70;99.90;;;;;;5037300;28;20260;-81
2023/06/26 00:40:57;;;;;;;0.10;0.10;;;20.60;99.90;;;;;;5036321;28;20178;-81
2023/06/26 00:43:23;;;;;;;0.10;0.10;;;20.60;99.90;;;;;;5036278;28;20232;-81
2023/06/26 00:45:48;;;;;;;0.10;0.10;;;20.60;99.90;;;;;;5033935;28;20209;-81
2023/06/26 00:48:14;;;;;;;0.10;0.10;;;20.70;99.90;;;;;;5039132;28;20233;-82
2023/06/26 00:50:41;;;;;;;0.10;0.10;;;20.60;99.90;;;;;;5036889;28;20173;-82
2023/06/26 00:53:12;;;;;;;0.10;0.10;;;20.60;99.90;;;;;;5035676;28;20210;-82
2023/06/26 00:55:37;;;;;;;0.10;0.10;;;20.50;99.90;;;;;;5038368;28;20262;-82
2023/06/26 00:58:03;;;;;;;0.10;0.10;;;20.40;99.90;;;;;;5038282;28;20275;-81
2023/06/26 01:00:29;;;;;;;0.10;0.10;;;20.30;99.90;;;;;;5036983;28;20263;-81
2023/06/26 01:02:58;;;;;;;0.10;0.10;;;20.40;99.90;;;;;;5036337;28;20213;-81
2023/06/26 01:05:25;;;;;;;0.10;0.10;;;20.50;99.90;;;;;;5036925;28;20213;-81
2023/06/26 01:07:50;;;;;;;0.10;0.10;;;20.70;99.90;;;;;;5039468;28;20187;-81
2023/06/26 01:10:17;;;;;;;0.10;0.10;;;20.80;99.90;;;;;;5036286;28;20260;-81
2023/06/26 01:12:43;;;;;;;0.10;0.10;;;20.70;99.90;;;;;;5036092;28;20205;-83
2023/06/26 01:15:09;;;;;;;0.10;0.10;;;20.60;99.90;;;;;;5037754;28;20185;-81
2023/06/26 01:17:38;;;;;;;0.10;0.10;;;20.50;99.90;;;;;;5028145;28;20524;-81
2023/06/26 01:20:06;;;;;;;0.10;0.10;;;20.40;99.90;;;;;;5022878;28;20182;-81
2023/06/26 01:22:44;;;;;;;0.10;0.10;;;20.40;99.90;;;;;;5022592;28;20202;-81
2023/06/26 01:25:51;;;;;;;0.10;0.10;;;20.40;99.90;;;;;;5024189;28;20194;-81
2023/06/26 01:28:19;;;;;;;0.10;0.10;;;20.50;99.90;;;;;;5023751;28;20189;-81
2023/06/26 01:30:45;;;;;;;0.10;0.10;;;20.50;99.90;;;;;;5021516;28;20244;-82
2023/06/26 01:33:13;;;;;;;0.10;0.10;;;20.50;99.90;;;;;;5019548;28;20306;-81
2023/06/26 01:35:39;;;;;;;0.10;0.10;;;20.60;99.90;;;;;;5022283;28;20289;-81
2023/06/26 01:38:19;;;;;;;0.10;0.10;;;20.70;99.90;;;;;;5033564;28;20182;-82
2023/06/26 01:40:45;;;;;;;0.10;0.10;;;20.70;99.90;;;;;;5020998;28;20210;-81
2023/06/26 01:43:57;;;;;;;0.10;0.10;;;20.80;99.90;;;;;;5021794;28;20643;-81
2023/06/26 01:46:25;;;;;;;0.10;0.10;;;20.90;99.90;;;;;;5013865;28;20608;-81
2023/06/26 01:49:15;;;;;;;0.10;0.10;;;20.90;99.90;;;;;;5020680;28;20291;-82
2023/06/26 01:51:57;;;;;;;0.10;0.10;;;20.90;99.90;;;;;;5029926;28;20208;-82
2023/06/26 01:54:25;;;;;;;0.10;0.10;;;21.00;99.90;;;;;;5023870;28;20178;-82
2023/06/26 01:56:53;;;;;;;0.10;0.10;;;21.00;99.90;;;;;;5022007;28;20317;-82
2023/06/26 01:59:22;;;;;;;0.10;0.10;;;20.90;99.90;;;;;;5024606;28;20208;-82
2023/06/26 02:01:48;;;;;;;0.10;0.10;;;20.90;99.90;;;;;;5021261;28;20823;-81
2023/06/26 02:04:13;;;;;;;0.10;0.10;;;20.80;99.90;;;;;;5020954;28;20182;-81
2023/06/26 02:06:39;;;;;;;0.10;0.10;;;20.70;99.90;;;;;;5022857;28;20240;-81
2023/06/26 02:09:04;;;;;;;0.10;0.10;;;20.70;99.90;;;;;;5022740;28;20182;-81
2023/06/26 02:11:30;;;;;;;0.10;0.10;;;20.70;99.90;;;;;;5021904;28;20684;-82
2023/06/26 02:13:55;;;;;;;0.10;0.10;;;20.60;99.90;;;;;;5023257;28;20223;-81
2023/06/26 02:16:21;;;;;;;0.10;0.10;;;20.40;99.90;;;;;;5021217;28;20285;-82
2023/06/26 02:18:46;;;;;;;0.10;0.10;;;20.10;99.90;;;;;;5022865;28;20549;-82
2023/06/26 02:21:13;;;;;;;0.10;0.10;;;19.90;99.90;;;;;;5022497;28;20197;-81
2023/06/26 02:23:38;;;;;;;0.10;0.10;;;19.90;99.90;;;;;;5023294;28;20293;-81
2023/06/26 02:26:04;;;;;;;0.10;0.10;;;20.10;99.90;;;;;;5022522;28;20206;-81
2023/06/26 02:28:30;;;;;;;0.10;0.10;;;20.20;99.90;;;;;;5020102;28;20195;-81
2023/06/26 02:30:56;;;;;;;0.10;0.10;;;20.30;99.90;;;;;;5021014;28;20182;-81
2023/06/26 02:33:22;;;;;;;0.10;0.10;;;20.40;99.90;;;;;;5021681;28;20198;-81
2023/06/26 02:35:50;;;;;;;0.10;0.10;;;20.20;99.90;;;;;;5019254;28;20191;-81
2023/06/26 02:38:15;;;;;;;0.10;0.10;;;20.20;99.90;;;;;;5020850;28;20190;-81
2023/06/26 02:40:41;;;;;;;0.10;0.10;;;20.40;99.90;;;;;;5036642;28;20255;-81
2023/06/26 02:43:06;;;;;;;0.10;0.10;;;20.40;99.90;;;;;;5023513;28;20218;-81
2023/06/26 02:45:32;;;;;;;0.10;0.10;;;20.50;99.90;;;;;;5021223;28;20237;-80
2023/06/26 02:47:57;;;;;;;0.10;0.10;;;20.60;99.90;;;;;;5019947;28;20178;-82
2023/06/26 02:50:23;;;;;;;0.10;0.10;;;20.60;99.90;;;;;;5023019;28;20186;-81
2023/06/26 02:52:52;;;;;;;0.10;0.10;;;20.60;99.90;;;;;;5019930;28;20236;-81
2023/06/26 02:55:19;;;;;;;0.10;0.10;;;20.60;99.90;;;;;;5022976;28;20171;-81
2023/06/26 02:57:44;;;;;;;0.10;0.10;;;20.50;99.90;;;;;;5021839;28;20186;-82
2023/06/26 03:00:11;;;;;;;0.10;0.10;;;20.50;99.90;;;;;;5020217;28;20185;-81
2023/06/26 03:02:36;;;;;;;0.10;0.10;;;20.50;99.90;;;;;;5021162;28;20206;-81
2023/06/26 03:05:03;;;;;;;0.10;0.10;;;20.40;99.90;;;;;;5018567;28;20217;-81
2023/06/26 03:07:29;;;;;;;0.10;0.10;;;20.40;99.90;;;;;;5021617;28;20166;-81
2023/06/26 03:09:55;;;;;;;0.10;0.10;;;20.40;99.90;;;;;;5023717;28;20185;-81
2023/06/26 03:12:20;;;;;;;0.10;0.10;;;20.40;99.90;;;;;;5020116;28;20251;-81
2023/06/26 03:14:46;;;;;;;0.10;0.10;;;20.40;99.90;;;;;;5022324;28;20205;-81
2023/06/26 03:17:11;;;;;;;0.10;0.10;;;20.40;99.90;;;;;;5021364;28;20179;-81
2023/06/26 03:19:37;;;;;;;0.10;0.10;;;20.40;99.90;;;;;;5020971;28;20535;-81
2023/06/26 03:22:03;;;;;;;0.10;0.10;;;20.50;99.90;;;;;;5021774;28;20210;-81
2023/06/26 03:24:29;;;;;;;0.10;0.10;;;20.40;99.90;;;;;;5020333;28;20178;-81
2023/06/26 03:26:54;;;;;;;0.10;0.10;;;20.50;99.90;;;;;;5022954;28;20749;-83
2023/06/26 03:29:20;;;;;;;0.10;0.10;;;20.50;99.90;;;;;;5021372;28;20947;-81
2023/06/26 03:31:45;;;;;;;0.10;0.10;;;20.40;99.90;;;;;;5020404;28;20388;-82
2023/06/26 03:34:11;;;;;;;0.10;0.10;;;20.50;99.90;;;;;;5020269;28;20175;-81
2023/06/26 03:36:36;;;;;;;0.10;0.10;;;20.50;99.90;;;;;;5020741;28;20261;-82
2023/06/26 03:39:03;;;;;;;0.10;0.10;;;20.70;99.90;;;;;;5021816;28;20190;-82
2023/06/26 03:41:29;;;;;;;0.10;0.10;;;21.30;99.90;;;;;;5021460;28;20213;-82
2023/06/26 03:43:56;;;;;;;0.10;0.10;;;22.00;99.90;;;;;;5022534;28;20183;-81
2023/06/26 03:46:22;;;;;;;0.10;0.10;;;22.50;99.90;;;;;;5018524;28;21834;-81
2023/06/26 03:48:47;;;;;;;0.10;0.10;;;22.90;99.90;;;;;;5019931;28;20191;-81
2023/06/26 03:51:13;;;;;;;0.10;0.10;;;23.50;99.90;;;;;;5020302;28;21104;-81
2023/06/26 03:53:39;;;;;;;0.10;0.10;;;23.90;99.90;;;;;;5017794;28;20187;-82
2023/06/26 03:56:04;;;;;;;0.10;0.10;;;24.40;99.90;;;;;;5021694;28;20182;-82
2023/06/26 03:58:30;;;;;;;0.10;0.10;;;24.80;99.90;;;;;;5022040;28;20766;-82
2023/06/26 04:00:55;;;;;;;0.10;0.10;;;25.20;99.90;;;;;;5015567;28;20187;-83
2023/06/26 04:03:21;;;;;;;0.10;0.10;;;25.70;99.90;;;;;;5018939;28;20699;-81
2023/06/26 04:05:46;;;;;;;0.10;0.10;;;25.80;99.90;;;;;;5018033;28;20247;-83
2023/06/26 04:08:12;;;;;;;0.10;0.10;;;26.30;99.90;;;;;;5018752;28;20182;-82
2023/06/26 04:10:38;;;;;;;0.10;0.10;;;26.40;99.90;;;;;;5019324;28;20174;-82
2023/06/26 04:13:03;;;;;;;0.10;0.10;;;26.60;99.90;;;;;;5019022;28;20252;-82
2023/06/26 04:15:29;;;;;;;0.10;0.10;;;26.90;99.90;;;;;;5021517;28;20207;-82
2023/06/26 04:17:54;;;;;;;0.10;0.10;;;27.40;99.90;;;;;;5021397;28;20209;-82
2023/06/26 04:20:20;;;;;;;0.10;0.10;;;27.70;99.90;;;;;;5020565;28;20400;-82
2023/06/26 04:22:45;;;;;;;0.10;0.10;;;28.00;99.90;;;;;;5023868;28;20206;-80
2023/06/26 04:25:14;;;;;;;0.10;0.10;;;28.10;99.90;;;;;;5033482;28;20209;-82
2023/06/26 04:27:39;;;;;;;0.10;0.10;;;27.90;99.90;;;;;;5021497;28;20178;-81
2023/06/26 04:30:05;;;;;;;0.10;0.10;;;27.40;99.90;;;;;;5023711;28;20190;-81
2023/06/26 04:32:31;;;;;;;0.10;0.10;;;26.40;99.90;;;;;;5020762;28;20312;-83
2023/06/26 04:34:56;;;;;;;0.10;0.10;;;25.60;99.90;;;;;;5022413;28;20190;-81
2023/06/26 04:37:24;;;;;;;0.10;0.10;;;25.00;99.90;;;;;;5020773;28;20191;-81
2023/06/26 04:39:50;;;;;;;0.10;0.10;;;24.50;99.90;;;;;;5020075;28;20171;-80
2023/06/26 04:42:15;;;;;;;0.10;0.10;;;24.10;99.90;;;;;;5019261;28;20675;-80
2023/06/26 04:44:41;;;;;;;0.10;0.10;;;23.70;99.90;;;;;;5020187;28;20190;-82
2023/06/26 04:47:07;;;;;;;0.10;0.10;;;23.30;99.90;;;;;;5018798;28;20320;-80
2023/06/26 04:49:33;;;;;;;0.10;0.10;;;23.10;99.90;;;;;;5021357;28;20265;-82
2023/06/26 04:52:00;;;;;;;0.10;0.10;;;23.00;99.90;;;;;;5021673;28;20258;-82
2023/06/26 04:54:26;;;;;;;0.10;0.10;;;23.00;99.90;;;;;;5022643;28;20178;-81
2023/06/26 04:56:51;;;;;;;0.10;0.10;;;22.90;99.90;;;;;;5024938;28;20320;-80
2023/06/26 04:59:17;;;;;;;0.10;0.10;;;22.90;99.90;;;;;;5024377;28;20257;-81
2023/06/26 05:01:48;;;;;;;0.10;0.10;;;22.80;99.90;;;;;;5022837;28;20213;-82
2023/06/26 05:04:15;;;;;;;0.10;0.10;;;22.70;99.90;;;;;;5021855;28;20708;-81
2023/06/26 05:06:40;;;;;;;0.10;0.10;;;22.70;99.90;;;;;;5023162;28;20210;-81
2023/06/26 05:09:06;;;;;;;0.10;0.10;;;22.60;99.90;;;;;;5023451;28;20556;-81
2023/06/26 05:11:31;;;;;;;0.10;0.10;;;22.50;99.90;;;;;;5021968;28;20202;-81
2023/06/26 05:13:57;;;;;;;0.10;0.10;;;22.50;99.90;;;;;;5022851;28;20198;-82
2023/06/26 05:16:22;;;;;;;0.10;0.10;;;22.40;99.90;;;;;;5023541;28;20198;-82
2023/06/26 05:18:48;;;;;;;0.10;0.10;;;22.50;99.90;;;;;;5023713;28;20201;-83
2023/06/26 05:21:15;;;;;;;0.10;0.10;;;22.50;99.90;;;;;;5020795;28;20197;-82
2023/06/26 05:23:44;;;;;;;0.10;0.10;;;22.60;99.90;;;;;;5025703;28;20662;-82
2023/06/26 05:26:09;;;;;;;0.10;0.10;;;22.70;99.90;;;;;;5021504;28;20206;-82
2023/06/26 05:28:36;;;;;;;0.10;0.10;;;22.60;99.90;;;;;;5025587;28;20193;-82
2023/06/26 05:31:04;;;;;;;0.10;0.10;;;22.60;99.90;;;;;;5026083;28;20214;-82
2023/06/26 05:33:30;;;;;;;0.10;0.10;;;22.70;99.90;;;;;;5030853;28;20197;-82
2023/06/26 05:35:58;;;;;;;0.10;0.10;;;22.70;99.90;;;;;;5030430;28;20294;-82
2023/06/26 05:38:24;;;;;;;0.10;0.10;;;22.80;99.90;;;;;;5029607;28;20245;-82
2023/06/26 05:40:50;;;;;;;0.10;0.10;;;22.70;99.90;;;;;;5025381;28;20942;-81
2023/06/26 05:43:16;;;;;;;0.10;0.10;;;22.80;99.90;;;;;;5029008;28;20273;-82
2023/06/26 05:45:41;;;;;;;0.10;0.10;;;22.80;99.90;;;;;;5028551;28;20206;-83
2023/06/26 05:48:07;;;;;;;0.10;0.10;;;22.80;99.90;;;;;;5028236;28;20186;-82
2023/06/26 05:50:33;;;;;;;0.10;0.10;;;22.90;99.90;;;;;;5027039;28;20218;-83
2023/06/26 05:52:59;;;;;;;0.10;0.10;;;22.90;99.90;;;;;;5024272;28;20541;-83
2023/06/26 05:55:25;;;;;;;0.10;0.10;;;23.10;99.90;;;;;;5026936;28;20266;-82
2023/06/26 05:57:52;;;;;;;0.10;0.10;;;23.30;99.90;;;;;;5024311;28;20200;-82
2023/06/26 06:00:18;;;;;;;0.10;0.10;;;23.40;99.90;;;;;;5022717;28;20281;-83
2023/06/26 06:02:43;;;;;;;0.10;0.10;;;23.60;99.90;;;;;;5022980;28;20214;-81
2023/06/26 06:05:09;;;;;;;0.10;0.10;;;23.60;99.90;;;;;;5020801;28;20225;-83
2023/06/26 06:07:36;;;;;;;0.10;0.10;;;23.60;99.90;;;;;;5021380;28;20267;-82
2023/06/26 06:10:03;;;;;;;0.10;0.10;;;23.80;99.90;;;;;;5023262;28;20233;-82
2023/06/26 06:12:29;;;;;;;0.10;0.10;;;23.90;99.90;;;;;;5022466;28;20276;-81
2023/06/26 06:14:56;;;;;;;0.10;0.10;;;24.10;99.90;;;;;;5023424;28;20178;-82
2023/06/26 06:17:22;;;;;;;0.10;0.10;;;24.20;99.90;;;;;;5025854;28;20258;-82
2023/06/26 06:19:48;;;;;;;0.10;0.10;;;24.20;99.90;;;;;;5023319;28;20678;-83
2023/06/26 06:22:13;;;;;;;0.10;0.10;;;24.20;99.90;;;;;;5024857;28;20198;-83
2023/06/26 06:24:39;;;;;;;0.10;0.10;;;24.30;99.90;;;;;;5022346;28;20663;-83
2023/06/26 06:27:05;;;;;;;0.10;0.10;;;24.40;99.90;;;;;;5023553;28;20263;-84
2023/06/26 06:29:30;;;;;;;0.10;0.10;;;24.50;99.90;;;;;;5021202;28;20221;-83
2023/06/26 06:31:56;;;;;;;0.10;0.10;;;24.60;99.90;;;;;;5022612;28;20199;-83
2023/06/26 06:34:22;;;;;;;0.10;0.10;;;24.70;99.90;;;;;;5022306;28;20293;-83
2023/06/26 06:36:49;;;;;;;0.10;0.10;;;24.90;99.90;;;;;;5022658;28;20175;-84
2023/06/26 06:39:15;;;;;;;0.10;0.10;;;25.00;99.90;;;;;;5020406;28;20190;-83
2023/06/26 06:41:41;;;;;;;0.10;0.10;;;25.20;99.90;;;;;;5022409;28;20210;-84
2023/06/26 06:44:06;;;;;;;0.10;0.10;;;25.30;99.90;;;;;;5022101;28;20281;-84
2023/06/26 06:46:32;;;;;;;0.10;0.10;;;25.30;99.90;;;;;;5024499;28;20242;-83
2023/06/26 06:48:57;;;;;;;0.10;0.10;;;25.50;99.90;;;;;;5023601;28;20270;-84
2023/06/26 06:51:23;;;;;;;0.10;0.10;;;25.60;99.90;;;;;;5026055;28;20187;-83
2023/06/26 06:53:48;;;;;;;0.10;0.10;;;25.80;99.90;;;;;;5020061;28;20190;-83
2023/06/26 06:56:14;;;;;;;0.10;0.10;;;26.00;99.90;;;;;;5022256;28;20192;-83
2023/06/26 06:58:42;;;;;;;0.10;0.10;;;26.20;99.90;;;;;;5022422;28;20661;-83
2023/06/26 07:01:09;;;;;;;0.10;0.10;;;26.10;99.90;;;;;;5021737;28;20186;-83
2023/06/26 07:03:35;;;;;;;0.10;0.10;;;26.10;99.90;;;;;;5019149;28;20244;-83
2023/06/26 07:06:01;;;;;;;0.10;0.10;;;26.10;99.90;;;;;;5020447;28;20210;-83
2023/06/26 07:08:26;;;;;;;0.10;0.10;;;26.30;99.90;;;;;;5020565;28;20594;-84
2023/06/26 07:10:52;;;;;;;0.10;0.10;;;26.30;99.90;;;;;;5016433;28;20185;-82
2023/06/26 07:13:18;;;;;;;0.10;0.10;;;26.50;99.90;;;;;;5021746;28;20209;-83
2023/06/26 07:15:45;;;;;;;0.10;0.10;;;26.40;99.90;;;;;;5024115;28;20308;-83
2023/06/26 07:18:10;;;;;;;0.10;0.10;;;26.60;99.90;;;;;;5024001;28;20182;-83
2023/06/26 07:20:36;;;;;;;0.10;0.10;;;26.90;99.90;;;;;;5022909;28;21264;-85
2023/06/26 07:23:01;;;;;;;0.10;0.10;;;27.00;99.90;;;;;;5023327;28;20234;-83
2023/06/26 07:25:27;;;;;;;0.10;0.10;;;27.00;99.90;;;;;;5021985;28;20210;-83
2023/06/26 07:27:52;;;;;;;0.10;0.10;;;27.20;99.90;;;;;;5022596;28;20182;-84
2023/06/26 07:30:18;;;;;;;0.10;0.10;;;27.20;99.90;;;;;;5024132;28;20174;-85
2023/06/26 07:32:45;;;;;;;0.10;0.10;;;27.30;99.90;;;;;;5020694;28;20198;-84
2023/06/26 07:35:11;;;;;;;0.10;0.10;;;27.20;99.90;;;;;;5020294;28;20649;-83
2023/06/26 07:37:36;;;;;;;0.10;0.10;;;27.40;99.90;;;;;;5021520;28;20198;-83
2023/06/26 07:40:02;;;;;;;0.10;0.10;;;27.40;99.90;;;;;;5020632;28;20217;-83
2023/06/26 07:42:28;;;;;;;0.10;0.10;;;27.60;99.90;;;;;;5018515;28;20296;-85
2023/06/26 07:44:53;;;;;;;0.10;0.10;;;27.90;99.90;;;;;;5019659;28;20252;-83
2023/06/26 07:47:19;;;;;;;0.10;0.10;;;27.90;99.90;;;;;;5020094;28;20217;-84
2023/06/26 07:49:44;;;;;;;0.10;0.10;;;28.20;99.90;;;;;;5022103;28;20286;-83
2023/06/26 07:52:10;;;;;;;0.10;0.10;;;28.50;99.90;;;;;;5025659;28;20272;-82
2023/06/26 07:54:36;;;;;;;0.10;0.10;;;28.50;99.90;;;;;;5022938;28;20270;-82
2023/06/26 07:57:06;;;;;;;0.10;0.10;;;28.50;99.90;;;;;;5021783;28;20277;-83
2023/06/26 07:59:32;;;;;;;0.22;0.22;;;28.30;99.90;;;;;;5021020;28;20265;-82
2023/06/26 08:01:59;;;;;;;0.20;0.20;;;28.00;99.90;;;;;;5020828;28;20678;-83
2023/06/26 08:04:28;;;;;;;0.10;0.10;;;27.90;99.90;;;;;;5020033;28;20187;-82
2023/06/26 08:06:56;;;;;;;0.10;0.10;;;27.70;99.90;;;;;;5022569;28;20209;-84
2023/06/26 08:09:25;;;;;;;0.10;0.10;;;27.70;99.90;;;;;;5021687;28;20183;-85
2023/06/26 08:11:50;;;;;;;0.10;0.10;;;27.60;99.90;;;;;;5020168;28;20216;-83
2023/06/26 08:14:16;;;;;;;0.10;0.10;;;27.70;99.90;;;;;;5023115;28;20178;-84
2023/06/26 08:16:43;;;;;;;0.10;0.10;;;27.80;99.90;;;;;;5022199;28;20194;-82
2023/06/26 08:19:10;;;;;;;0.10;0.10;;;27.80;99.90;;;;;;5023633;28;20205;-83
2023/06/26 08:21:35;;;;;;;0.10;0.10;;;27.90;99.90;;;;;;5020825;28;20256;-83
2023/06/26 08:24:02;;;;;;;0.10;0.10;;;28.00;99.90;;;;;;5016868;28;20187;-83
2023/06/26 08:26:28;;;;;;;0.10;0.10;;;28.30;99.90;;;;;;5020521;28;20213;-84
2023/06/26 08:28:53;;;;;;;0.10;0.10;;;28.50;99.90;;;;;;5026502;28;20944;-83
2023/06/26 08:31:19;;;;;;;0.10;0.10;;;29.00;99.90;;;;;;5026577;28;20189;-83
2023/06/26 08:33:44;;;;;;;0.10;0.10;;;29.40;99.90;;;;;;5023042;28;20209;-83
2023/06/26 08:36:10;;;;;;;0.10;0.10;;;29.80;99.90;;;;;;5024639;28;20273;-83
2023/06/26 08:38:35;;;;;;;0.10;0.10;;;29.80;99.90;;;;;;5022994;28;20218;-84
2023/06/26 08:41:01;;;;;;;0.10;0.10;;;29.70;99.90;;;;;;5022042;28;20246;-84
2023/06/26 08:43:28;;;;;;;0.10;0.10;;;29.40;99.90;;;;;;5024852;28;20324;-83
2023/06/26 08:45:53;;;;;;;0.10;0.10;;;29.60;99.90;;;;;;5024751;28;20225;-83
2023/06/26 08:48:21;;;;;;;0.10;0.10;;;29.60;99.90;;;;;;5025267;28;20558;-84
2023/06/26 08:50:48;;;;;;;0.10;0.10;;;29.70;99.90;;;;;;5016915;28;20187;-83
2023/06/26 08:53:30;;;;;;;0.10;0.10;;;29.90;99.90;;;;;;5026654;28;20715;-85
2023/06/26 08:55:58;;;;;;;0.10;0.10;;;29.80;99.90;;;;;;5021211;28;20534;-84
2023/06/26 08:58:23;;;;;;;0.10;0.10;;;29.70;99.90;;;;;;5038917;28;20301;-83
2023/06/26 09:00:49;;;;;;;0.10;0.10;;;29.90;99.90;;;;;;5022313;28;21183;-84
2023/06/26 09:03:15;;;;;;;0.10;0.10;;;29.90;99.90;;;;;;5026613;28;20251;-82
2023/06/26 09:05:41;;;;;;;0.10;0.10;;;30.10;99.90;;;;;;5022668;28;20215;-83
2023/06/26 09:08:07;;;;;;;0.10;0.10;;;30.20;99.90;;;;;;5025762;28;20521;-82
2023/06/26 09:10:33;;;;;;;0.10;0.10;;;30.30;99.90;;;;;;5025458;28;20257;-83
2023/06/26 09:13:00;;;;;;;0.10;0.10;;;30.30;99.90;;;;;;5023578;28;20212;-81
2023/06/26 09:15:28;;;;;;;0.10;0.10;;;30.20;99.90;;;;;;5025566;28;20213;-83
2023/06/26 09:18:00;;;;;;;0.10;0.10;;;30.20;99.90;;;;;;5028804;28;20178;-82
2023/06/26 09:20:30;;;;;;;0.10;0.10;;;30.30;99.90;;;;;;5029439;28;20183;-83
2023/06/26 09:22:56;;;;;;;0.43;0.43;;;30.30;99.90;;;;;;5026073;28;20206;-82
2023/06/26 09:25:23;;;;;;;0.63;0.63;;;30.30;99.90;;;;;;5024982;28;20218;-82
2023/06/26 09:27:48;;;;;;;0.10;0.10;;;30.40;99.90;;;;;;5026466;28;20261;-83
2023/06/26 09:30:17;;;;;;;0.10;0.10;;;30.50;99.90;;;;;;5021878;28;20186;-82
2023/06/26 09:32:42;;;;;;;0.10;0.10;;;30.50;99.90;;;;;;5025220;28;20954;-82
2023/06/26 09:35:08;;;;;;;0.10;0.10;;;30.30;99.90;;;;;;5023812;28;20269;-82
2023/06/26 09:37:34;;;;;;;0.10;0.10;;;30.40;99.90;;;;;;5027507;28;20179;-84
2023/06/26 09:40:00;;;;;;;0.10;0.10;;;30.40;99.90;;;;;;5021384;28;20267;-82
2023/06/26 09:42:25;;;;;;;0.10;0.10;;;30.60;99.90;;;;;;5022091;28;20289;-84
2023/06/26 09:44:51;;;;;;;0.10;0.10;;;30.60;99.90;;;;;;5019004;28;20186;-82
2023/06/26 09:47:18;;;;;;;0.10;0.10;;;30.40;99.90;;;;;;5026806;28;20214;-84
2023/06/26 09:49:44;;;;;;;0.10;0.10;;;30.20;99.90;;;;;;5024502;28;20640;-83
2023/06/26 09:52:13;;;;;;;0.10;0.10;;;30.30;99.90;;;;;;5022420;28;20198;-83
2023/06/26 09:54:39;;;;;;;0.10;0.10;;;30.20;99.90;;;;;;5019674;28;20186;-82
2023/06/26 09:57:12;;;;;;;0.10;0.10;;;30.00;99.90;;;;;;5022653;28;20186;-84
2023/06/26 09:59:39;;;;;;;0.10;0.10;;;30.00;99.90;;;;;;5023443;28;20183;-83
2023/06/26 10:02:05;;;;;;;0.10;0.10;;;30.10;99.90;;;;;;5021341;28;21077;-85
2023/06/26 10:04:31;;;;;;;0.10;0.10;;;30.40;99.90;;;;;;5020873;28;20186;-82
2023/06/26 10:06:58;;;;;;;0.10;0.10;;;30.40;99.90;;;;;;5023059;28;20776;-82
2023/06/26 10:09:24;;;;;;;0.10;0.10;;;30.50;99.90;;;;;;5023288;28;20290;-84
2023/06/26 10:12:05;;;;;;;0.10;0.10;;;30.70;99.90;;;;;;5021907;28;20194;-83
2023/06/26 10:14:35;;;;;;;0.10;0.10;;;30.20;99.90;;;;;;5022269;28;20265;-84
2023/06/26 10:17:03;;;;;;;0.10;0.10;;;30.10;99.90;;;;;;5018766;28;20234;-83
2023/06/26 10:19:31;;;;;;;0.10;0.10;;;29.80;99.90;;;;;;5022953;28;20178;-84
2023/06/26 10:21:59;;;;;;;0.10;0.10;;;30.10;99.90;;;;;;5018393;28;20210;-83
2023/06/26 10:24:28;;;;;;;0.10;0.10;;;30.40;99.90;;;;;;5020028;28;20531;-84
2023/06/26 10:26:59;;;;;;;0.10;0.10;;;30.40;99.90;;;;;;5025153;28;20237;-82
2023/06/26 10:29:26;;;;;;;0.10;0.10;;;30.60;99.90;;;;;;5017014;28;21228;-84
2023/06/26 10:31:54;;;;;;;0.10;0.10;;;30.80;99.90;;;;;;5021766;28;20271;-84
2023/06/26 10:34:21;;;;;;;0.10;0.10;;;31.20;99.90;;;;;;5015542;28;20252;-82
2023/06/26 10:36:48;;;;;;;0.10;0.10;;;31.10;99.90;;;;;;5021327;28;20205;-82
2023/06/26 10:39:13;;;;;;;0.10;0.10;;;30.40;99.90;;;;;;5018334;28;20183;-83
2023/06/26 10:41:43;;;;;;;0.10;0.10;;;30.80;99.90;;;;;;5022524;28;20275;-83
2023/06/26 10:44:16;;;;;;;0.10;0.10;;;30.50;99.90;;;;;;5023295;28;20182;-84
2023/06/26 10:46:52;;;;;;;0.10;0.10;;;30.80;99.90;;;;;;5023031;28;20706;-83
2023/06/26 10:49:19;;;;;;;0.10;0.10;;;31.10;99.90;;;;;;5024386;28;20236;-82
2023/06/26 10:51:50;;;;;;;0.10;0.10;;;30.80;99.90;;;;;;5023390;28;20214;-82
2023/06/26 10:54:17;;;;;;;0.10;0.10;;;30.70;99.90;;;;;;5021215;28;20206;-83
2023/06/26 10:56:44;;;;;;;0.10;0.10;;;30.60;99.90;;;;;;5021253;28;20190;-82
2023/06/26 10:59:21;;;;;;;0.10;0.10;;;30.70;99.90;;;;;;5023458;28;20269;-82
2023/06/26 11:01:55;;;;;;;0.10;0.10;;;30.30;99.90;;;;;;5021034;28;20267;-83
2023/06/26 11:04:35;;;;;;;0.10;0.10;;;29.80;99.90;;;;;;5022439;28;20551;-82
2023/06/26 11:07:16;;;;;;;0.10;0.10;;;29.80;99.90;;;;;;5022739;28;20246;-81
2023/06/26 11:10:08;;;;;;;0.10;0.10;;;30.30;99.90;;;;;;5021327;28;20201;-80
2023/06/26 11:12:42;;;;;;;0.10;0.10;;;30.40;99.90;;;;;;5022571;28;20194;-81
2023/06/26 11:15:09;;;;;;;0.10;0.10;;;31.00;99.90;;;;;;5025520;28;20182;-81
2023/06/26 11:17:36;;;;;;;0.10;0.10;;;31.50;99.90;;;;;;5020909;28;20182;-82
2023/06/26 11:20:04;;;;;;;0.10;0.10;;;31.40;99.90;;;;;;5017821;28;20186;-83
2023/06/26 11:22:30;;;;;;;0.10;0.10;;;31.10;99.90;;;;;;5020227;28;20288;-83
2023/06/26 11:24:59;;;;;;;0.10;0.10;;;30.70;99.90;;;;;;5022765;28;20175;-82
2023/06/26 11:27:50;;;;;;;0.10;0.10;;;30.50;99.90;;;;;;5021367;28;20637;-83
2023/06/26 11:30:24;;;;;;;0.10;0.10;;;31.00;99.90;;;;;;5019871;28;20206;-83
2023/06/26 11:32:50;;;;;;;0.10;0.10;;;31.10;99.90;;;;;;5020916;28;20208;-83
2023/06/26 11:35:30;;;;;;;0.10;0.10;;;31.10;99.90;;;;;;5021255;28;20242;-84
2023/06/26 11:38:03;;;;;;;0.10;0.10;;;31.30;99.90;;;;;;5018750;28;20265;-83
2023/06/26 11:40:33;;;;;;;0.10;0.10;;;31.40;99.90;;;;;;5018061;28;20174;-84
2023/06/26 11:42:59;;;;;;;0.10;0.10;;;31.10;99.90;;;;;;5018034;28;20271;-81
2023/06/26 11:45:30;;;;;;;0.10;0.10;;;31.10;99.90;;;;;;5020190;28;20233;-82
2023/06/26 11:47:59;;;;;;;0.10;0.10;;;31.40;99.90;;;;;;5019550;28;20648;-84
2023/06/26 11:50:26;;;;;;;0.10;0.10;;;31.50;99.90;;;;;;5019136;28;20186;-84
2023/06/26 11:52:56;;;;;;;0.10;0.10;;;31.70;99.90;;;;;;5020266;28;20210;-82
2023/06/26 11:55:22;;;;;;;0.57;0.57;;;31.50;99.90;;;;;;5018247;28;20197;-82
2023/06/26 11:57:50;;;;;;;0.10;0.10;;;31.70;99.90;;;;;;5017846;28;20732;-82
2023/06/26 12:00:17;;;;;;;0.10;0.10;;;31.70;99.90;;;;;;5020847;28;20553;-82
2023/06/26 12:02:46;;;;;;;0.30;0.30;;;31.50;99.90;;;;;;5018947;28;20283;-84
2023/06/26 12:05:13;;;;;;;0.10;0.10;;;31.70;99.90;;;;;;5020027;28;20205;-82
2023/06/26 12:07:41;;;;;;;0.10;0.10;;;31.90;99.90;;;;;;5022113;28;20277;-82
2023/06/26 12:10:07;;;;;;;0.10;0.10;;;31.90;99.90;;;;;;5020627;28;20660;-83
2023/06/26 12:12:33;;;;;;;0.10;0.10;;;31.90;99.90;;;;;;5019039;28;20204;-83
2023/06/26 12:15:00;;;;;;;0.10;0.10;;;31.00;99.90;;;;;;5018353;28;20174;-82
2023/06/26 12:17:25;;;;;;;0.10;0.10;;;30.50;99.90;;;;;;5025230;28;20245;-82
2023/06/26 12:19:51;;;;;;;0.10;0.10;;;30.10;99.90;;;;;;5019241;28;20204;-84
2023/06/26 12:22:18;;;;;;;0.10;0.10;;;30.40;99.90;;;;;;5021902;28;20295;-82
2023/06/26 12:24:44;;;;;;;0.10;0.10;;;30.20;99.90;;;;;;5021883;28;20293;-82
2023/06/26 12:27:11;;;;;;;0.10;0.10;;;30.30;99.90;;;;;;5020383;28;20206;-83
2023/06/26 12:29:39;;;;;;;0.10;0.10;;;29.80;99.90;;;;;;5017727;28;20258;-84
2023/06/26 12:32:08;;;;;;;0.10;0.10;;;29.30;99.90;;;;;;5019789;28;20202;-82
2023/06/26 12:34:38;;;;;;;0.10;0.10;;;29.40;99.90;;;;;;5022811;28;20183;-82
2023/06/26 12:37:13;;;;;;;2.25;2.15;;;29.50;99.90;;;;;;5021554;28;20230;-82
2023/06/26 12:39:53;;;;;;;0.10;0.10;;;29.80;99.90;;;;;;5023045;28;20189;-82
2023/06/26 12:42:20;;;;;;;0.10;0.10;;;30.00;99.90;;;;;;5023635;28;20308;-84
2023/06/26 12:44:46;;;;;;;0.15;0.15;;;30.60;99.90;;;;;;5022362;28;20207;-82
2023/06/26 12:47:13;;;;;;;0.10;0.10;;;30.80;99.90;;;;;;5021442;28;20241;-82
2023/06/26 12:49:41;;;;;;;0.10;0.10;;;30.80;99.90;;;;;;5020215;28;20182;-82